Aviation Digital Data Service (ADDS)

Output produced by TAFs form (0338 UTC 06 May 2016)
found at http://www.aviationweather.gov/adds/tafs/
 
KSBY 052340Z 0600/0624 03008KT P6SM OVC015 
     TEMPO 0600/0604 4SM -RA BR OVC008 
     FM060400 02010KT 4SM -RA BR OVC006 
     FM061000 36008KT 2SM -RA BR OVC004 
     FM061500 32006KT 4SM -RA BR OVC008